createdAt,value
2022-09-02T00:01:05.772Z,13.00
2022-09-02T00:04:31.943Z,14.70
2022-09-02T00:07:39.992Z,16.60
2022-09-02T00:10:45.244Z,13.80
2022-09-02T00:14:05.012Z,14.00
2022-09-02T00:17:38.155Z,12.10
2022-09-02T00:21:05.412Z,7.70
2022-09-02T00:24:31.195Z,6.20
2022-09-02T00:28:15.998Z,12.50
2022-09-02T00:31:46.317Z,7.30
2022-09-02T00:35:30.117Z,6.50
2022-09-02T00:38:48.350Z,6.20
2022-09-02T00:42:42.536Z,7.50
2022-09-02T00:46:16.176Z,7.90
2022-09-02T00:50:12.109Z,6.70
2022-09-02T00:53:55.916Z,8.10
2022-09-02T00:57:30.525Z,5.10
2022-09-02T01:01:06.797Z,6.70
2022-09-02T01:04:46.793Z,7.20
2022-09-02T01:08:20.592Z,7.60
2022-09-02T01:12:24.322Z,6.90
2022-09-02T01:15:55.769Z,6.40
2022-09-02T01:19:50.592Z,10.10
2022-09-02T01:23:23.799Z,6.60
2022-09-02T01:26:40.962Z,5.00
2022-09-02T01:30:26.939Z,4.30
2022-09-02T01:34:10.388Z,5.80
2022-09-02T01:37:50.682Z,4.50
2022-09-02T01:41:15.488Z,6.30
2022-09-02T01:44:58.360Z,5.90
2022-09-02T01:48:44.701Z,6.30
2022-09-02T01:52:38.449Z,5.40
2022-09-02T01:56:42.249Z,6.80
2022-09-02T02:00:31.155Z,5.50
2022-09-02T02:03:56.008Z,6.20
2022-09-02T02:07:40.042Z,5.70
2022-09-02T02:11:23.865Z,7.20
2022-09-02T02:19:01.674Z,4.60
2022-09-02T02:22:43.434Z,5.30
2022-09-02T02:26:47.199Z,7.30
2022-09-02T02:30:51.154Z,4.80
2022-09-02T02:34:55.030Z,7.30
2022-09-02T02:38:24.639Z,7.10
2022-09-02T02:42:01.321Z,6.70
2022-09-02T02:45:36.636Z,4.40
2022-09-02T02:49:26.082Z,9.60
2022-09-02T02:53:28.601Z,5.60
2022-09-02T02:57:12.784Z,6.70
2022-09-02T03:01:16.752Z,5.70
2022-09-02T03:05:00.974Z,7.20
2022-09-02T03:08:43.209Z,4.60
2022-09-02T03:12:27.786Z,7.00
2022-09-02T03:16:31.913Z,5.40
2022-09-02T03:20:10.635Z,5.40
2022-09-02T03:23:57.984Z,5.90
2022-09-02T03:28:01.858Z,5.50
2022-09-02T03:31:46.788Z,7.80
2022-09-02T03:35:34.680Z,6.60
2022-09-02T03:39:18.353Z,7.00
2022-09-02T03:43:22.138Z,10.70
2022-09-02T03:47:24.662Z,4.00
2022-09-02T03:51:28.416Z,7.10
2022-09-02T03:54:54.578Z,5.60
2022-09-02T03:58:51.560Z,6.10
2022-09-02T04:02:55.406Z,5.40
2022-09-02T04:06:42.447Z,6.50
2022-09-02T04:10:46.482Z,8.50
2022-09-02T04:14:50.285Z,8.30
2022-09-02T04:18:50.264Z,5.20
2022-09-02T04:22:54.026Z,13.90
2022-09-02T04:30:31.612Z,7.80
2022-09-02T04:34:26.342Z,6.60
2022-09-02T04:38:02.909Z,9.30
2022-09-02T04:42:06.675Z,11.40
2022-09-02T04:46:10.748Z,6.10
2022-09-02T04:50:05.665Z,13.50
2022-09-02T04:53:50.499Z,9.00
2022-09-02T04:57:36.591Z,6.50
2022-09-02T05:01:40.463Z,9.20
2022-09-02T05:05:34.364Z,20.40
2022-09-02T05:09:30.952Z,10.30
2022-09-02T05:13:34.737Z,10.40
2022-09-02T05:17:17.791Z,14.60
2022-09-02T05:21:13.256Z,14.90
2022-09-02T05:24:49.900Z,20.60
2022-09-02T05:28:43.688Z,18.10
2022-09-02T05:32:14.440Z,24.60
2022-09-02T05:36:21.216Z,22.30
2022-09-02T05:40:15.060Z,18.70
2022-09-02T05:44:18.956Z,18.40
2022-09-02T05:47:44.045Z,18.90
2022-09-02T05:51:27.742Z,21.20
2022-09-02T05:55:02.116Z,12.50
2022-09-02T05:58:31.773Z,15.00
2022-09-02T06:01:52.226Z,11.80
2022-09-02T06:05:16.127Z,10.90
2022-09-02T06:08:42.570Z,17.80
2022-09-02T06:12:26.233Z,9.60
2022-09-02T06:16:04.317Z,12.60
2022-09-02T06:19:19.693Z,9.30
2022-09-02T06:22:35.439Z,8.80
2022-09-02T06:25:28.811Z,15.50
2022-09-02T06:28:38.682Z,7.30
2022-09-02T06:32:02.749Z,11.80
2022-09-02T06:35:11.638Z,10.00
2022-09-02T06:38:28.238Z,8.20
2022-09-02T06:41:24.076Z,8.00
2022-09-02T06:44:23.891Z,8.60
2022-09-02T06:47:37.380Z,11.40
2022-09-02T06:50:41.967Z,7.60
2022-09-02T06:54:07.059Z,8.80
2022-09-02T06:57:03.880Z,7.20
2022-09-02T07:00:31.426Z,6.20
2022-09-02T07:03:39.437Z,3.40
2022-09-02T07:07:03.099Z,7.90
2022-09-02T07:10:00.305Z,3.20
2022-09-02T07:13:17.858Z,5.30
2022-09-02T07:16:27.203Z,9.50
2022-09-02T07:19:35.788Z,5.40
2022-09-02T07:22:21.653Z,3.80
2022-09-02T07:25:16.465Z,2.50
2022-09-02T07:28:09.967Z,7.90
2022-09-02T07:31:03.023Z,6.80
2022-09-02T07:33:52.844Z,3.50
2022-09-02T07:36:48.628Z,4.10
2022-09-02T07:39:55.322Z,7.60
2022-09-02T07:43:01.738Z,6.90
2022-09-02T07:45:48.559Z,10.70
2022-09-02T07:48:34.704Z,9.00
2022-09-02T07:51:24.346Z,3.50
2022-09-02T07:54:14.750Z,9.10
2022-09-02T07:57:20.552Z,6.00
2022-09-02T08:00:14.134Z,7.70
2022-09-02T08:03:00.659Z,5.50
2022-09-02T08:05:53.626Z,5.60
2022-09-02T08:08:45.703Z,4.10
2022-09-02T08:11:32.861Z,7.90
2022-09-02T08:14:28.907Z,1.80
2022-09-02T08:17:21.621Z,3.60
2022-09-02T08:20:08.205Z,3.00
2022-09-02T08:23:25.693Z,2.40
2022-09-02T08:26:38.826Z,3.40
2022-09-02T08:29:22.110Z,6.50
2022-09-02T08:32:35.937Z,4.10
2022-09-02T08:35:22.295Z,2.50
2022-09-02T08:38:32.624Z,3.90
2022-09-02T08:41:45.361Z,1.50
2022-09-02T08:44:55.432Z,9.30
2022-09-02T08:47:57.573Z,2.20
2022-09-02T08:51:02.321Z,1.50
2022-09-02T08:54:00.626Z,7.10
2022-09-02T08:56:47.084Z,2.20
2022-09-02T09:02:47.477Z,6.70
2022-09-02T09:06:33.354Z,4.30
2022-09-02T09:10:00.294Z,2.90
2022-09-02T09:13:03.651Z,2.20
2022-09-02T09:16:16.591Z,2.80
2022-09-02T09:19:40.231Z,2.50
2022-09-02T09:22:30.041Z,4.40
2022-09-02T09:25:53.442Z,2.90
2022-09-02T09:28:51.756Z,4.20
2022-09-02T09:31:38.736Z,5.40
2022-09-02T09:35:00.290Z,3.70
2022-09-02T09:37:56.325Z,3.90
2022-09-02T09:41:44.093Z,2.60
2022-09-02T09:44:46.401Z,3.10
2022-09-02T09:47:43.979Z,3.50
2022-09-02T09:50:49.129Z,3.10
2022-09-02T09:53:43.527Z,1.90
2022-09-02T09:56:41.758Z,1.00
2022-09-02T09:59:58.318Z,1.50
2022-09-02T10:03:05.025Z,1.40
2022-09-02T10:05:48.971Z,4.50
2022-09-02T10:09:02.453Z,2.50
2022-09-02T10:12:08.389Z,8.90
2022-09-02T10:14:54.810Z,5.30
2022-09-02T10:17:54.736Z,3.50
2022-09-02T10:21:15.320Z,3.00
2022-09-02T10:24:31.421Z,0.90
2022-09-02T10:27:27.276Z,2.90
2022-09-02T10:30:25.047Z,0.80
2022-09-02T10:33:19.601Z,1.90
2022-09-02T10:36:19.813Z,6.30
2022-09-02T10:42:15.041Z,0.50
2022-09-02T10:45:10.807Z,2.00
2022-09-02T10:48:02.198Z,3.80
2022-09-02T10:51:03.243Z,2.00
2022-09-02T10:53:48.941Z,1.70
2022-09-02T10:57:11.393Z,0.50
2022-09-02T11:00:16.423Z,3.30
2022-09-02T11:03:11.058Z,1.50
2022-09-02T11:05:59.268Z,2.10
2022-09-02T11:08:51.009Z,4.20
2022-09-02T11:11:59.625Z,1.10
2022-09-02T11:14:57.274Z,2.40
2022-09-02T11:17:56.022Z,3.50
2022-09-02T11:21:07.137Z,7.10
2022-09-02T11:23:57.567Z,3.60
2022-09-02T11:26:54.587Z,6.80
2022-09-02T11:29:48.757Z,4.20
2022-09-02T11:33:07.834Z,5.70
2022-09-02T11:35:51.107Z,0.40
2022-09-02T11:38:43.381Z,2.70
2022-09-02T11:41:58.815Z,5.20
2022-09-02T11:45:10.503Z,1.00
2022-09-02T11:48:22.930Z,1.00
2022-09-02T11:53:55.044Z,1.60
2022-09-02T11:56:43.798Z,0.80
2022-09-02T11:59:51.700Z,1.00
2022-09-02T12:02:47.033Z,2.30
2022-09-02T12:05:33.025Z,3.20
2022-09-02T12:08:28.270Z,2.00
2022-09-02T12:11:38.049Z,0.70
2022-09-02T12:14:21.523Z,1.50
2022-09-02T12:17:07.806Z,1.50
2022-09-02T12:19:51.842Z,2.20
2022-09-02T12:22:40.584Z,4.40
2022-09-02T12:25:26.836Z,0.70
2022-09-02T12:28:16.796Z,2.90
2022-09-02T12:31:10.054Z,5.00
2022-09-02T12:33:53.700Z,2.70
2022-09-02T12:36:36.708Z,1.70
2022-09-02T12:39:25.667Z,7.80
2022-09-02T12:42:12.701Z,2.80
2022-09-02T12:45:11.656Z,1.30
2022-09-02T12:48:11.309Z,3.80
2022-09-02T12:50:57.678Z,0.90
2022-09-02T12:53:43.411Z,1.70
2022-09-02T12:56:26.384Z,2.20
2022-09-02T12:59:26.403Z,5.90
2022-09-02T13:02:17.046Z,1.70
2022-09-02T13:05:17.220Z,2.90
2022-09-02T13:08:34.527Z,13.60
2022-09-02T13:11:46.546Z,0.90
2022-09-02T13:14:35.564Z,3.80
2022-09-02T13:17:45.326Z,3.60
2022-09-02T13:20:53.737Z,8.80
2022-09-02T13:24:05.797Z,1.10
2022-09-02T13:27:20.562Z,5.30
2022-09-02T13:30:06.535Z,4.50
2022-09-02T13:33:08.650Z,4.70
2022-09-02T13:35:58.855Z,7.20
2022-09-02T13:38:42.170Z,3.30
2022-09-02T13:41:30.110Z,2.20
2022-09-02T13:44:21.205Z,6.20
2022-09-02T13:47:24.369Z,4.20
2022-09-02T13:50:08.850Z,3.20
2022-09-02T13:56:03.066Z,8.10
2022-09-02T13:58:55.241Z,6.70
2022-09-02T14:01:43.824Z,1.00
2022-09-02T14:04:28.150Z,2.70
2022-09-02T14:07:12.826Z,0.80
2022-09-02T14:10:05.792Z,5.20
2022-09-02T14:12:50.389Z,10.60
2022-09-02T14:15:34.694Z,4.70
2022-09-02T14:18:20.702Z,1.50
2022-09-02T14:21:03.618Z,1.10
2022-09-02T14:23:52.227Z,4.80
2022-09-02T14:26:42.195Z,9.60
2022-09-02T14:29:28.447Z,13.60
2022-09-02T14:32:20.817Z,5.70
2022-09-02T14:35:23.849Z,8.00
2022-09-02T14:38:06.717Z,8.80
2022-09-02T14:40:59.647Z,16.00
2022-09-02T14:43:47.471Z,6.10
2022-09-02T14:46:36.147Z,4.70
2022-09-02T14:49:29.024Z,5.20
2022-09-02T14:52:21.453Z,3.50
2022-09-02T14:55:06.530Z,2.80
2022-09-02T14:58:01.135Z,1.40
2022-09-02T15:00:47.244Z,6.90
2022-09-02T15:03:31.686Z,6.90
2022-09-02T15:06:15.374Z,2.30
2022-09-02T15:09:04.356Z,5.00
2022-09-02T15:11:54.344Z,3.60
2022-09-02T15:14:57.401Z,6.50
2022-09-02T15:17:43.396Z,2.80
2022-09-02T15:20:26.827Z,2.70
2022-09-02T15:23:12.768Z,1.40
2022-09-02T15:26:08.799Z,6.20
2022-09-02T15:28:52.114Z,0.90
2022-09-02T15:31:36.564Z,4.00
2022-09-02T15:34:42.246Z,7.20
2022-09-02T15:37:26.235Z,2.10
2022-09-02T15:40:10.000Z,1.80
2022-09-02T15:42:59.686Z,6.70
2022-09-02T15:45:48.125Z,5.30
2022-09-02T15:48:32.773Z,4.20
2022-09-02T15:51:19.539Z,5.50
2022-09-02T15:54:05.550Z,10.10
2022-09-02T15:56:58.759Z,1.40
2022-09-02T15:59:42.433Z,3.50
2022-09-02T16:02:30.727Z,2.00
2022-09-02T16:05:24.668Z,4.20
2022-09-02T16:08:07.669Z,14.20
2022-09-02T16:10:53.618Z,6.60
2022-09-02T16:13:40.268Z,2.50
2022-09-02T16:16:23.562Z,5.90
2022-09-02T16:19:12.797Z,2.10
2022-09-02T16:21:56.007Z,3.50
2022-09-02T16:24:43.847Z,4.90
2022-09-02T16:27:45.555Z,2.50
2022-09-02T16:30:33.934Z,3.30
2022-09-02T16:33:24.345Z,5.50
2022-09-02T16:36:08.778Z,17.10
2022-09-02T16:38:56.398Z,4.40
2022-09-02T16:42:05.743Z,9.00
2022-09-02T16:44:51.428Z,5.60
2022-09-02T16:47:35.051Z,4.40
2022-09-02T16:50:28.262Z,4.80
2022-09-02T16:53:31.447Z,8.90
2022-09-02T16:56:23.720Z,15.10
2022-09-02T16:59:20.819Z,3.50
2022-09-02T17:02:13.805Z,21.70
2022-09-02T17:05:17.603Z,13.10
2022-09-02T17:08:04.153Z,10.40
2022-09-02T17:11:16.337Z,6.80
2022-09-02T17:14:22.795Z,6.60
2022-09-02T17:17:28.650Z,3.20
2022-09-02T17:20:21.021Z,3.50
2022-09-02T17:23:17.588Z,9.10
2022-09-02T17:26:21.891Z,4.30
2022-09-02T17:29:49.995Z,8.40
2022-09-02T17:32:59.633Z,8.00
2022-09-02T17:36:03.061Z,8.60
2022-09-02T17:39:29.905Z,8.40
2022-09-02T17:43:06.134Z,10.00
2022-09-02T17:46:18.369Z,7.80
2022-09-02T17:49:17.712Z,11.60
2022-09-02T17:52:01.035Z,17.20
2022-09-02T17:54:54.644Z,27.40
2022-09-02T17:58:00.558Z,32.60
2022-09-02T18:00:50.385Z,29.40
2022-09-02T18:03:51.912Z,40.70
2022-09-02T18:06:59.040Z,23.60
2022-09-02T18:09:43.500Z,24.40
2022-09-02T18:12:27.840Z,27.80
2022-09-02T18:15:30.882Z,24.70
2022-09-02T18:18:37.914Z,25.40
2022-09-02T18:21:59.096Z,18.80
2022-09-02T18:25:53.993Z,19.10
2022-09-02T18:29:15.416Z,28.50
2022-09-02T18:32:49.431Z,21.20
2022-09-02T18:36:14.980Z,19.30
2022-09-02T18:39:37.315Z,22.80
2022-09-02T18:42:52.667Z,21.80
2022-09-02T18:45:57.745Z,22.30
2022-09-02T18:49:15.745Z,32.40
2022-09-02T18:52:08.733Z,31.60
2022-09-02T18:55:39.286Z,17.70
2022-09-02T18:59:00.064Z,24.90
2022-09-02T19:02:39.940Z,16.00
2022-09-02T19:05:35.462Z,30.30
2022-09-02T19:08:40.546Z,14.10
2022-09-02T19:12:04.368Z,17.90
2022-09-02T19:15:32.135Z,16.00
2022-09-02T19:18:40.887Z,25.20
2022-09-02T19:21:48.659Z,17.40
2022-09-02T19:25:03.304Z,14.60
2022-09-02T19:28:06.286Z,24.00
2022-09-02T19:31:21.948Z,17.90
2022-09-02T19:34:43.679Z,19.60
2022-09-02T19:37:47.683Z,18.10
2022-09-02T19:41:01.823Z,17.50
2022-09-02T19:44:09.725Z,16.00
2022-09-02T19:51:19.140Z,15.70
2022-09-02T19:54:38.850Z,18.00
2022-09-02T19:58:00.146Z,18.40
2022-09-02T20:01:04.277Z,22.90
2022-09-02T20:03:51.509Z,26.60
2022-09-02T20:07:15.005Z,18.10
2022-09-02T20:13:41.293Z,16.50
2022-09-02T20:16:34.415Z,11.40
2022-09-02T20:23:07.668Z,12.50
2022-09-02T20:26:42.815Z,6.60
2022-09-02T20:29:59.004Z,7.10
2022-09-02T20:33:22.077Z,9.50
2022-09-02T20:36:47.458Z,4.80
2022-09-02T20:40:45.293Z,5.70
2022-09-02T20:44:16.468Z,8.80
2022-09-02T20:48:17.053Z,5.80
2022-09-02T20:52:01.332Z,4.60
2022-09-02T20:55:33.876Z,5.80
2022-09-02T20:59:31.254Z,7.00
2022-09-02T21:02:39.333Z,7.70
2022-09-02T21:06:15.926Z,7.60
2022-09-02T21:10:26.838Z,7.60
2022-09-02T21:14:19.501Z,5.30
2022-09-02T21:18:26.083Z,9.20
2022-09-02T21:22:13.234Z,7.90
2022-09-02T21:25:44.488Z,8.70
2022-09-02T21:29:07.056Z,10.60
2022-09-02T21:33:09.354Z,10.60
2022-09-02T21:36:54.839Z,7.40
2022-09-02T21:40:57.199Z,10.10
2022-09-02T21:45:12.184Z,10.80
2022-09-02T21:49:22.203Z,11.50
2022-09-02T21:53:27.753Z,8.90
2022-09-02T21:57:30.210Z,11.40
2022-09-02T22:01:23.783Z,9.70
2022-09-02T22:05:41.040Z,8.50
2022-09-02T22:09:43.339Z,12.20
2022-09-02T22:13:26.234Z,10.80
2022-09-02T22:17:26.909Z,7.50
2022-09-02T22:21:13.021Z,11.60
2022-09-02T22:24:56.560Z,9.00
2022-09-02T22:29:03.474Z,9.80
2022-09-02T22:32:28.561Z,6.80
2022-09-02T22:36:24.729Z,12.30
2022-09-02T22:39:56.677Z,9.80
2022-09-02T22:43:20.845Z,10.30
2022-09-02T22:47:22.464Z,8.50
2022-09-02T22:51:19.018Z,12.30
2022-09-02T22:55:23.115Z,8.40
2022-09-02T22:58:53.831Z,8.20
2022-09-02T23:02:22.940Z,14.80
2022-09-02T23:06:24.961Z,10.70
2022-09-02T23:10:05.504Z,10.50
2022-09-02T23:13:29.728Z,7.70
2022-09-02T23:17:09.947Z,13.10
2022-09-02T23:21:04.874Z,13.90
2022-09-02T23:25:11.266Z,8.90
2022-09-02T23:29:17.806Z,8.00
2022-09-02T23:33:05.975Z,9.90
2022-09-02T23:36:46.432Z,13.40
2022-09-02T23:40:36.196Z,9.20
2022-09-02T23:44:25.004Z,12.70
2022-09-02T23:47:59.704Z,10.60
2022-09-02T23:52:21.754Z,7.00
2022-09-02T23:56:29.815Z,11.30
